createdAt,value
2022-08-03T00:02:15.726Z,21.00
2022-08-03T00:04:43.283Z,20.90
2022-08-03T00:07:10.569Z,20.90
2022-08-03T00:09:37.835Z,20.80
2022-08-03T00:12:05.492Z,20.80
2022-08-03T00:14:32.808Z,20.70
2022-08-03T00:17:00.243Z,20.60
2022-08-03T00:19:28.320Z,20.60
2022-08-03T00:21:56.157Z,20.50
2022-08-03T00:24:23.656Z,20.50
2022-08-03T00:26:50.922Z,20.50
2022-08-03T00:29:18.277Z,20.50
2022-08-03T00:31:52.363Z,20.40
2022-08-03T00:34:22.477Z,20.40
2022-08-03T00:37:04.021Z,20.40
2022-08-03T00:39:31.371Z,20.30
2022-08-03T00:42:05.281Z,20.30
2022-08-03T00:44:32.619Z,20.30
2022-08-03T00:46:59.946Z,20.30
2022-08-03T00:49:28.604Z,20.30
2022-08-03T00:51:56.431Z,20.20
2022-08-03T00:54:25.218Z,20.10
2022-08-03T00:56:59.556Z,20.20
2022-08-03T00:59:28.489Z,20.10
2022-08-03T01:01:56.027Z,20.00
2022-08-03T01:04:24.164Z,20.00
2022-08-03T01:07:03.680Z,19.90
2022-08-03T01:10:00.923Z,19.90
2022-08-03T01:12:39.538Z,19.90
2022-08-03T01:15:32.246Z,19.70
2022-08-03T01:18:17.336Z,19.70
2022-08-03T01:20:49.657Z,19.60
2022-08-03T01:24:00.074Z,19.60
2022-08-03T01:26:41.806Z,19.50
2022-08-03T01:29:31.212Z,19.50
2022-08-03T01:32:58.714Z,19.50
2022-08-03T01:35:05.059Z,19.40
2022-08-03T01:38:12.453Z,19.40
2022-08-03T01:40:43.795Z,19.40
2022-08-03T01:44:26.219Z,19.30
2022-08-03T01:46:07.953Z,19.30
2022-08-03T01:48:38.593Z,19.30
2022-08-03T01:51:08.635Z,19.30
2022-08-03T01:53:38.251Z,19.20
2022-08-03T01:56:07.433Z,19.20
2022-08-03T01:58:39.197Z,19.20
2022-08-03T02:01:07.763Z,19.20
2022-08-03T02:03:56.657Z,19.20
2022-08-03T02:07:01.755Z,19.10
2022-08-03T02:09:23.699Z,19.00
2022-08-03T02:11:55.665Z,19.00
2022-08-03T02:14:25.597Z,19.00
2022-08-03T02:16:57.398Z,19.00
2022-08-03T02:19:26.853Z,18.90
2022-08-03T02:22:00.880Z,18.90
2022-08-03T02:24:31.300Z,18.90
2022-08-03T02:27:00.729Z,18.90
2022-08-03T02:29:39.653Z,18.80
2022-08-03T02:32:15.819Z,18.80
2022-08-03T02:34:48.477Z,18.80
2022-08-03T02:37:20.305Z,18.70
2022-08-03T02:39:52.483Z,18.70
2022-08-03T02:42:24.137Z,18.60
2022-08-03T02:44:55.923Z,18.60
2022-08-03T02:47:25.565Z,18.60
2022-08-03T02:50:00.057Z,18.60
2022-08-03T02:52:32.576Z,18.60
2022-08-03T02:55:03.719Z,18.50
2022-08-03T02:57:37.187Z,18.40
2022-08-03T03:00:06.164Z,18.40
2022-08-03T03:02:37.306Z,18.30
2022-08-03T03:05:54.568Z,18.30
2022-08-03T03:07:57.309Z,18.30
2022-08-03T03:10:27.387Z,18.30
2022-08-03T03:13:06.018Z,18.20
2022-08-03T03:15:39.899Z,18.20
2022-08-03T03:18:10.640Z,18.20
2022-08-03T03:20:41.171Z,18.20
2022-08-03T03:23:10.530Z,18.10
2022-08-03T03:25:39.623Z,18.10
2022-08-03T03:28:11.111Z,18.10
2022-08-03T03:30:39.363Z,18.10
2022-08-03T03:33:07.535Z,18.10
2022-08-03T03:35:39.272Z,18.10
2022-08-03T03:38:08.576Z,18.10
2022-08-03T03:40:39.156Z,18.00
2022-08-03T03:43:14.098Z,18.00
2022-08-03T03:45:43.725Z,18.00
2022-08-03T03:48:12.097Z,18.00
2022-08-03T03:50:43.596Z,18.00
2022-08-03T03:53:15.919Z,18.00
2022-08-03T03:56:01.227Z,18.00
2022-08-03T03:58:34.628Z,18.00
2022-08-03T04:01:02.328Z,18.00
2022-08-03T04:03:29.813Z,18.00
2022-08-03T04:06:19.123Z,18.00
2022-08-03T04:09:07.953Z,18.10
2022-08-03T04:11:49.993Z,18.10
2022-08-03T04:14:28.109Z,18.10
2022-08-03T04:17:04.031Z,18.20
2022-08-03T04:19:50.888Z,18.20
2022-08-03T04:22:29.620Z,18.30
2022-08-03T04:25:05.563Z,18.30
2022-08-03T04:27:40.485Z,18.30
2022-08-03T04:30:11.359Z,18.40
2022-08-03T04:32:45.479Z,18.40
2022-08-03T04:35:14.078Z,18.50
2022-08-03T04:37:52.596Z,18.50
2022-08-03T04:40:29.783Z,18.60
2022-08-03T04:43:00.626Z,18.70
2022-08-03T04:45:30.473Z,18.80
2022-08-03T04:48:03.134Z,18.90
2022-08-03T04:50:31.711Z,19.00
2022-08-03T04:53:07.429Z,19.10
2022-08-03T04:55:36.824Z,19.20
2022-08-03T04:58:06.552Z,19.30
2022-08-03T05:00:34.208Z,19.40
2022-08-03T05:03:02.385Z,19.50
2022-08-03T05:05:50.311Z,19.50
2022-08-03T05:08:20.454Z,19.60
2022-08-03T05:10:55.533Z,19.70
2022-08-03T05:13:26.658Z,19.80
2022-08-03T05:15:54.393Z,19.80
2022-08-03T05:18:21.685Z,19.90
2022-08-03T05:20:49.130Z,20.00
2022-08-03T05:23:16.431Z,20.00
2022-08-03T05:25:49.731Z,20.10
2022-08-03T05:28:17.513Z,20.10
2022-08-03T05:30:44.941Z,20.20
2022-08-03T05:33:12.253Z,20.20
2022-08-03T05:36:00.477Z,20.30
2022-08-03T05:38:28.748Z,20.40
2022-08-03T05:41:21.247Z,20.40
2022-08-03T05:43:50.998Z,20.50
2022-08-03T05:46:18.327Z,20.60
2022-08-03T05:48:45.743Z,20.60
2022-08-03T05:51:13.638Z,20.70
2022-08-03T05:53:42.728Z,20.80
2022-08-03T05:56:14.350Z,20.90
2022-08-03T05:58:49.020Z,21.00
2022-08-03T06:01:17.461Z,21.00
2022-08-03T06:03:46.158Z,21.00
2022-08-03T06:06:14.024Z,21.10
2022-08-03T06:08:42.476Z,21.20
2022-08-03T06:11:10.065Z,21.30
2022-08-03T06:13:37.473Z,21.40
2022-08-03T06:16:05.949Z,21.50
2022-08-03T06:18:33.487Z,21.60
2022-08-03T06:21:14.391Z,21.60
2022-08-03T06:23:53.306Z,21.70
2022-08-03T06:26:24.482Z,21.70
2022-08-03T06:28:54.550Z,21.70
2022-08-03T06:31:33.193Z,21.90
2022-08-03T06:34:32.916Z,21.90
2022-08-03T06:37:02.305Z,22.00
2022-08-03T06:39:30.327Z,22.20
2022-08-03T06:41:58.383Z,22.20
2022-08-03T06:44:29.772Z,22.30
2022-08-03T06:46:59.170Z,22.40
2022-08-03T06:49:28.001Z,22.50
2022-08-03T06:52:03.824Z,22.50
2022-08-03T06:54:37.972Z,22.60
2022-08-03T06:57:09.069Z,22.70
2022-08-03T07:00:08.226Z,22.80
2022-08-03T07:02:28.287Z,22.90
2022-08-03T07:04:57.249Z,23.00
2022-08-03T07:07:25.322Z,23.10
2022-08-03T07:09:57.617Z,23.20
2022-08-03T07:12:28.456Z,23.20
2022-08-03T07:15:01.253Z,23.40
2022-08-03T07:17:35.531Z,23.50
2022-08-03T07:20:07.305Z,23.60
2022-08-03T07:22:35.990Z,23.70
2022-08-03T07:25:04.182Z,23.70
2022-08-03T07:27:36.927Z,23.90
2022-08-03T07:30:08.754Z,24.00
2022-08-03T07:32:37.051Z,24.10
2022-08-03T07:35:24.873Z,24.20
2022-08-03T07:37:55.144Z,24.20
2022-08-03T07:40:23.466Z,24.30
2022-08-03T07:42:56.116Z,24.50
2022-08-03T07:45:24.482Z,24.50
2022-08-03T07:47:53.215Z,24.60
2022-08-03T07:50:22.206Z,24.80
2022-08-03T07:52:53.199Z,24.90
2022-08-03T07:55:26.093Z,25.00
2022-08-03T07:58:05.073Z,25.10
2022-08-03T08:00:34.326Z,25.20
2022-08-03T08:03:02.823Z,25.30
2022-08-03T08:05:34.298Z,25.40
2022-08-03T08:08:02.367Z,25.50
2022-08-03T08:10:30.702Z,25.60
2022-08-03T08:12:59.043Z,25.70
2022-08-03T08:15:27.146Z,25.80
2022-08-03T08:17:58.181Z,26.00
2022-08-03T08:20:34.231Z,26.10
2022-08-03T08:23:12.158Z,26.20
2022-08-03T08:25:54.000Z,26.30
2022-08-03T08:28:32.266Z,26.40
2022-08-03T08:31:02.149Z,26.50
2022-08-03T08:33:48.043Z,26.60
2022-08-03T08:36:18.567Z,26.70
2022-08-03T08:38:46.866Z,26.90
2022-08-03T08:41:15.592Z,27.00
2022-08-03T08:43:43.820Z,27.10
2022-08-03T08:46:23.259Z,27.30
2022-08-03T08:48:54.615Z,27.30
2022-08-03T08:51:54.550Z,27.50
2022-08-03T08:54:21.347Z,27.70
2022-08-03T08:56:54.074Z,27.70
2022-08-03T08:59:22.118Z,27.70
2022-08-03T09:01:50.011Z,27.90
2022-08-03T09:04:18.317Z,28.00
2022-08-03T09:07:04.447Z,28.20
2022-08-03T09:10:10.217Z,28.30
2022-08-03T09:12:42.299Z,28.30
2022-08-03T09:15:31.796Z,28.40
2022-08-03T09:18:01.835Z,28.40
2022-08-03T09:20:32.125Z,28.50
2022-08-03T09:23:44.642Z,28.50
2022-08-03T09:26:02.374Z,28.70
2022-08-03T09:29:01.370Z,28.90
2022-08-03T09:31:33.926Z,29.10
2022-08-03T09:34:05.741Z,29.20
2022-08-03T09:36:37.586Z,29.20
2022-08-03T09:39:10.928Z,29.40
2022-08-03T09:41:40.880Z,29.70
2022-08-03T09:44:09.647Z,29.90
2022-08-03T09:46:57.064Z,30.00
2022-08-03T09:49:25.651Z,30.20
2022-08-03T09:52:33.906Z,30.50
2022-08-03T09:54:42.463Z,30.60
2022-08-03T09:57:22.303Z,30.40
2022-08-03T09:59:51.175Z,30.50
2022-08-03T10:02:25.861Z,30.50
2022-08-03T10:04:54.329Z,30.70
2022-08-03T10:07:23.578Z,31.00
2022-08-03T10:10:29.080Z,31.10
2022-08-03T10:12:58.192Z,31.10
2022-08-03T10:16:23.006Z,31.20
2022-08-03T10:18:13.989Z,31.30
2022-08-03T10:20:46.840Z,31.40
2022-08-03T10:23:17.099Z,31.60
2022-08-03T10:25:53.104Z,31.70
2022-08-03T10:28:22.373Z,31.50
2022-08-03T10:30:53.887Z,31.20
2022-08-03T10:33:51.614Z,31.30
2022-08-03T10:36:14.234Z,31.50
2022-08-03T10:38:47.404Z,31.40
2022-08-03T10:41:16.980Z,31.70
2022-08-03T10:43:57.005Z,32.10
2022-08-03T10:46:26.643Z,32.30
2022-08-03T10:48:54.984Z,32.60
2022-08-03T10:51:23.654Z,32.90
2022-08-03T10:53:54.185Z,33.20
2022-08-03T10:56:54.626Z,33.30
2022-08-03T10:59:51.052Z,33.60
2022-08-03T11:02:18.813Z,33.60
2022-08-03T11:04:46.358Z,33.70
2022-08-03T11:07:22.884Z,33.80
2022-08-03T11:09:56.234Z,33.70
2022-08-03T11:12:30.493Z,33.80
2022-08-03T11:15:03.346Z,33.70
2022-08-03T11:17:33.936Z,33.30
2022-08-03T11:20:14.974Z,33.70
2022-08-03T11:22:51.596Z,33.80
2022-08-03T11:25:54.428Z,33.80
2022-08-03T11:28:27.113Z,34.10
2022-08-03T11:30:56.198Z,34.00
2022-08-03T11:33:31.493Z,33.80
2022-08-03T11:36:02.166Z,34.00
2022-08-03T11:38:30.122Z,34.50
2022-08-03T11:41:03.024Z,35.00
2022-08-03T11:43:31.613Z,35.00
2022-08-03T11:46:09.103Z,35.10
2022-08-03T11:48:43.741Z,35.20
2022-08-03T11:51:28.682Z,35.00
2022-08-03T11:53:58.110Z,35.00
2022-08-03T11:56:26.569Z,35.10
2022-08-03T11:59:19.989Z,34.70
2022-08-03T12:01:46.943Z,35.10
2022-08-03T12:04:16.545Z,35.10
2022-08-03T12:07:01.970Z,35.10
2022-08-03T12:09:29.502Z,36.00
2022-08-03T12:12:00.396Z,36.20
2022-08-03T12:14:48.824Z,36.80
2022-08-03T12:17:19.549Z,37.20
2022-08-03T12:19:47.493Z,37.90
2022-08-03T12:22:17.108Z,37.60
2022-08-03T12:24:47.553Z,37.80
2022-08-03T12:27:26.886Z,37.50
2022-08-03T12:29:59.253Z,37.50
2022-08-03T12:32:30.841Z,37.90
2022-08-03T12:35:01.509Z,38.60
2022-08-03T12:37:32.902Z,38.80
2022-08-03T12:40:09.505Z,38.70
2022-08-03T12:42:41.540Z,38.90
2022-08-03T12:45:28.943Z,39.10
2022-08-03T12:47:58.718Z,39.60
2022-08-03T12:50:27.499Z,39.70
2022-08-03T12:52:55.894Z,39.70
2022-08-03T12:55:24.782Z,40.40
2022-08-03T12:57:52.297Z,40.50
2022-08-03T13:00:28.686Z,41.10
2022-08-03T13:03:38.283Z,41.50
2022-08-03T13:05:49.278Z,41.70
2022-08-03T13:08:24.912Z,41.80
2022-08-03T13:10:52.679Z,42.20
2022-08-03T13:13:38.717Z,42.40
2022-08-03T13:16:06.081Z,42.80
2022-08-03T13:18:33.512Z,43.00
2022-08-03T13:21:02.266Z,43.50
2022-08-03T13:23:30.476Z,43.20
2022-08-03T13:25:58.334Z,43.00
2022-08-03T13:28:25.686Z,42.00
2022-08-03T13:30:54.900Z,42.80
2022-08-03T13:33:22.458Z,42.70
2022-08-03T13:35:50.183Z,43.00
2022-08-03T13:38:17.886Z,42.70
2022-08-03T13:40:49.381Z,42.90
2022-08-03T13:43:17.539Z,43.70
2022-08-03T13:45:51.214Z,44.50
2022-08-03T13:48:36.138Z,44.90
2022-08-03T13:51:22.208Z,44.00
2022-08-03T13:53:52.486Z,43.90
2022-08-03T13:56:22.539Z,44.50
2022-08-03T13:58:50.060Z,45.20
2022-08-03T14:01:29.672Z,45.60
2022-08-03T14:04:05.220Z,47.10
2022-08-03T14:06:46.702Z,47.50
2022-08-03T14:09:15.299Z,48.20
2022-08-03T14:12:07.132Z,49.10
2022-08-03T14:14:31.062Z,48.80
2022-08-03T14:16:58.431Z,48.80
2022-08-03T14:19:25.952Z,49.80
2022-08-03T14:22:06.320Z,49.50
2022-08-03T14:24:34.021Z,50.90
2022-08-03T14:27:16.809Z,52.10
2022-08-03T14:29:44.390Z,52.30
2022-08-03T14:32:13.426Z,52.40
2022-08-03T14:34:43.267Z,52.60
2022-08-03T14:37:10.668Z,52.60
2022-08-03T14:42:26.103Z,52.80
2022-08-03T14:44:57.296Z,53.10
2022-08-03T14:47:28.462Z,53.50
2022-08-03T14:50:37.373Z,53.80
2022-08-03T14:52:43.566Z,54.10
2022-08-03T14:55:11.200Z,54.00
2022-08-03T14:57:38.600Z,54.10
2022-08-03T15:00:06.634Z,53.50
2022-08-03T15:02:34.036Z,53.90
2022-08-03T15:05:01.394Z,54.40
2022-08-03T15:07:28.699Z,55.00
2022-08-03T15:09:56.067Z,54.80
2022-08-03T15:12:23.497Z,54.40
2022-08-03T15:14:50.793Z,54.60
2022-08-03T15:17:18.320Z,54.30
2022-08-03T15:20:00.985Z,55.00
2022-08-03T15:22:34.413Z,54.00
2022-08-03T15:25:04.124Z,53.80
2022-08-03T15:28:03.593Z,53.70
2022-08-03T15:30:36.079Z,54.00
2022-08-03T15:33:03.651Z,52.90
2022-08-03T15:35:30.971Z,52.40
2022-08-03T15:37:58.227Z,51.20
2022-08-03T15:40:25.577Z,50.90
2022-08-03T15:42:52.902Z,50.10
2022-08-03T15:45:20.464Z,50.00
2022-08-03T15:47:47.897Z,50.10
2022-08-03T15:50:15.265Z,50.50
2022-08-03T15:52:42.498Z,50.70
2022-08-03T15:55:10.256Z,50.50
2022-08-03T15:59:03.571Z,50.30
2022-08-03T16:00:33.691Z,50.10
2022-08-03T16:03:02.126Z,51.10
2022-08-03T16:05:29.519Z,51.20
2022-08-03T16:08:03.700Z,51.40
2022-08-03T16:10:32.813Z,51.40
2022-08-03T16:13:00.307Z,51.20
2022-08-03T16:15:28.163Z,50.40
2022-08-03T16:17:55.586Z,49.90
2022-08-03T16:20:33.880Z,50.80
2022-08-03T16:23:11.439Z,51.00
2022-08-03T16:25:49.162Z,51.00
2022-08-03T16:28:17.541Z,50.70
2022-08-03T16:30:46.777Z,50.80
2022-08-03T16:33:17.420Z,51.60
2022-08-03T16:35:46.939Z,51.70
2022-08-03T16:38:18.746Z,51.30
2022-08-03T16:40:51.705Z,49.10
2022-08-03T16:43:20.553Z,48.40
2022-08-03T16:45:48.426Z,49.70
2022-08-03T16:48:16.816Z,50.70
2022-08-03T16:50:45.055Z,50.60
2022-08-03T16:53:16.737Z,50.80
2022-08-03T16:55:53.433Z,51.40
2022-08-03T16:58:34.585Z,51.20
2022-08-03T17:01:21.705Z,51.20
2022-08-03T17:04:01.646Z,50.80
2022-08-03T17:06:35.305Z,51.20
2022-08-03T17:09:09.799Z,51.20
2022-08-03T17:11:47.198Z,51.00
2022-08-03T17:14:21.827Z,51.20
2022-08-03T17:16:53.846Z,51.10
2022-08-03T17:19:24.202Z,50.90
2022-08-03T17:22:04.806Z,50.30
2022-08-03T17:24:41.478Z,50.20
2022-08-03T17:28:41.919Z,49.40
2022-08-03T17:30:10.483Z,48.40
2022-08-03T17:32:56.596Z,48.10
2022-08-03T17:35:36.568Z,48.10
2022-08-03T17:38:10.293Z,47.50
2022-08-03T17:40:50.182Z,47.10
2022-08-03T17:44:13.352Z,46.90
2022-08-03T17:46:10.947Z,47.40
2022-08-03T17:48:41.401Z,48.00
2022-08-03T17:51:20.440Z,48.20
2022-08-03T17:54:18.793Z,48.10
2022-08-03T17:57:22.008Z,47.80
2022-08-03T18:00:44.281Z,47.50
2022-08-03T18:03:23.604Z,46.60
2022-08-03T18:06:11.860Z,45.50
2022-08-03T18:08:55.357Z,44.60
2022-08-03T18:14:23.929Z,42.00
2022-08-03T18:17:02.127Z,40.80
2022-08-03T18:20:02.009Z,39.90
2022-08-03T18:22:20.953Z,39.30
2022-08-03T18:24:52.179Z,38.80
2022-08-03T18:27:21.906Z,38.60
2022-08-03T18:29:54.401Z,38.30
2022-08-03T18:32:22.374Z,38.00
2022-08-03T18:34:56.049Z,37.60
2022-08-03T18:37:26.815Z,37.20
2022-08-03T18:39:57.917Z,36.80
2022-08-03T18:42:26.887Z,36.50
2022-08-03T18:44:56.228Z,36.10
2022-08-03T18:47:50.456Z,35.60
2022-08-03T18:50:23.131Z,35.10
2022-08-03T18:53:15.632Z,34.40
2022-08-03T18:56:02.826Z,33.90
2022-08-03T18:58:35.165Z,33.40
2022-08-03T19:01:58.186Z,32.90
2022-08-03T19:04:13.487Z,32.50
2022-08-03T19:06:47.180Z,32.10
2022-08-03T19:09:34.454Z,31.80
2022-08-03T19:12:12.593Z,31.40
2022-08-03T19:15:00.185Z,31.20
2022-08-03T19:17:29.936Z,31.00
2022-08-03T19:19:58.835Z,30.90
2022-08-03T19:22:29.511Z,30.80
2022-08-03T19:25:04.112Z,30.70
2022-08-03T19:27:32.518Z,30.50
2022-08-03T19:30:04.082Z,30.40
2022-08-03T19:32:34.541Z,30.40
2022-08-03T19:35:05.657Z,30.30
2022-08-03T19:37:43.792Z,30.20
2022-08-03T19:40:12.436Z,30.10
2022-08-03T19:42:44.719Z,30.00
2022-08-03T19:45:21.099Z,29.90
2022-08-03T19:47:52.646Z,29.80
2022-08-03T19:50:20.808Z,29.70
2022-08-03T19:52:49.839Z,29.70
2022-08-03T19:55:18.289Z,29.60
2022-08-03T19:57:49.263Z,29.50
2022-08-03T20:00:20.073Z,29.40
2022-08-03T20:02:54.393Z,29.30
2022-08-03T20:05:21.765Z,29.10
2022-08-03T20:07:50.622Z,29.00
2022-08-03T20:10:20.077Z,28.90
2022-08-03T20:12:49.221Z,28.80
2022-08-03T20:15:22.166Z,28.70
2022-08-03T20:17:54.586Z,28.70
2022-08-03T20:20:26.133Z,28.50
2022-08-03T20:22:57.440Z,28.40
2022-08-03T20:25:57.235Z,28.30
2022-08-03T20:28:49.807Z,28.20
2022-08-03T20:31:23.840Z,28.10
2022-08-03T20:34:00.715Z,28.00
2022-08-03T20:36:28.052Z,28.00
2022-08-03T20:38:57.987Z,27.90
2022-08-03T20:41:25.692Z,27.90
2022-08-03T20:43:53.257Z,27.80
2022-08-03T20:46:32.133Z,27.80
2022-08-03T20:49:05.394Z,27.70
2022-08-03T20:51:49.945Z,27.70
2022-08-03T20:54:22.668Z,27.70
2022-08-03T20:56:58.794Z,27.60
2022-08-03T20:59:38.554Z,27.50
2022-08-03T21:05:08.488Z,27.40
2022-08-03T21:08:04.893Z,27.40
2022-08-03T21:10:50.437Z,27.30
2022-08-03T21:12:57.246Z,43.00
2022-08-03T21:13:07.897Z,27.50
2022-08-03T21:13:24.695Z,27.20
2022-08-03T21:16:06.687Z,27.10
2022-08-03T21:18:46.267Z,27.10
2022-08-03T21:21:16.329Z,27.00
2022-08-03T21:23:49.078Z,27.00
2022-08-03T21:26:19.281Z,26.90
2022-08-03T21:28:49.036Z,26.90
2022-08-03T21:31:24.681Z,26.80
2022-08-03T21:33:59.723Z,26.70
2022-08-03T21:36:29.039Z,26.70
2022-08-03T21:38:57.825Z,26.60
2022-08-03T21:41:32.480Z,26.50
2022-08-03T21:44:01.059Z,26.50
2022-08-03T21:46:35.149Z,26.40
2022-08-03T21:50:05.846Z,26.40
2022-08-03T21:51:58.767Z,26.30
2022-08-03T21:54:34.847Z,26.30
2022-08-03T21:57:09.141Z,26.20
2022-08-03T21:59:40.607Z,26.20
2022-08-03T22:02:11.511Z,26.10
2022-08-03T22:04:55.635Z,26.10
2022-08-03T22:07:26.602Z,26.10
2022-08-03T22:09:56.546Z,26.10
2022-08-03T22:12:26.559Z,26.00
2022-08-03T22:15:00.462Z,26.00
2022-08-03T22:17:56.083Z,25.90
2022-08-03T22:20:19.460Z,25.90
2022-08-03T22:22:55.185Z,25.80
2022-08-03T22:25:36.432Z,25.80
2022-08-03T22:28:08.182Z,25.70
2022-08-03T22:30:35.721Z,25.70
2022-08-03T22:33:11.026Z,25.70
2022-08-03T22:35:46.484Z,25.60
2022-08-03T22:38:17.325Z,25.60
2022-08-03T22:40:47.091Z,25.50
2022-08-03T22:43:14.786Z,25.50
2022-08-03T22:46:08.863Z,25.50
2022-08-03T22:48:35.423Z,25.40
2022-08-03T22:51:08.830Z,25.40
2022-08-03T22:53:36.599Z,25.30
2022-08-03T22:56:04.179Z,25.30
2022-08-03T22:58:31.488Z,25.30
2022-08-03T23:01:04.358Z,25.20
2022-08-03T23:04:01.092Z,25.20
2022-08-03T23:06:21.985Z,25.20
2022-08-03T23:08:50.610Z,25.20
2022-08-03T23:11:19.165Z,25.10
2022-08-03T23:13:52.334Z,25.00
2022-08-03T23:16:29.162Z,25.00
2022-08-03T23:18:59.626Z,25.00
2022-08-03T23:22:00.260Z,24.90
2022-08-03T23:24:24.585Z,24.90
2022-08-03T23:26:58.988Z,24.90
2022-08-03T23:29:28.275Z,24.80
2022-08-03T23:31:57.617Z,24.70
2022-08-03T23:34:44.897Z,24.70
2022-08-03T23:37:15.105Z,24.70
2022-08-03T23:39:47.248Z,24.60
2022-08-03T23:42:19.730Z,24.60
2022-08-03T23:44:50.117Z,24.60
2022-08-03T23:47:17.396Z,24.50
2022-08-03T23:49:44.684Z,24.50
2022-08-03T23:52:43.222Z,24.50
2022-08-03T23:55:26.994Z,24.50
2022-08-03T23:58:28.170Z,24.40
